Time;durP1;ratioP1;P1;durP2;ratioP2;P2;SDS_P1;SDS_P2;PMS_P1;PMS_P2;Temp;Humidity;BMP_temperature;BMP_pressure;BME280_temperature;BME280_humidity;BME280_pressure;Samples;Min_cycle;Max_cycle;Signal;HPM_P1;HPM_P2
2022/03/16 00:00:57;;;;;;;21.10;13.87;;;7.20;99.90;;;8.04;100.00;-20000.66;5093749;28;20210;-57
2022/03/16 00:03:25;;;;;;;18.20;13.10;;;7.10;99.90;;;7.93;100.00;-19996.72;5094613;28;20234;-54
2022/03/16 00:05:55;;;;;;;21.23;14.27;;;7.10;99.90;;;7.93;100.00;-19996.91;5093568;28;20314;-57
2022/03/16 00:08:23;;;;;;;18.37;13.50;;;7.10;99.90;;;7.95;100.00;-19997.41;5093877;28;20238;-55
2022/03/16 00:10:51;;;;;;;17.87;14.13;;;7.10;99.90;;;8.06;100.00;-20001.34;5093500;28;20309;-55
2022/03/16 00:13:18;;;;;;;18.53;13.63;;;7.10;99.90;;;7.99;100.00;-19998.94;5093592;28;20244;-58
2022/03/16 00:15:46;;;;;;;20.90;14.73;;;7.10;99.90;;;8.04;100.00;-20000.47;5093492;28;20231;-55
2022/03/16 00:18:14;;;;;;;22.37;14.17;;;7.10;99.90;;;8.01;100.00;-19999.47;5094263;28;20298;-55
2022/03/16 00:20:42;;;;;;;23.27;15.57;;;7.10;99.90;;;8.02;100.00;-19999.97;5093231;28;20316;-57
2022/03/16 00:23:12;;;;;;;23.03;15.70;;;7.10;99.90;;;7.83;100.00;-19993.31;5093427;28;20236;-57
2022/03/16 00:25:40;;;;;;;23.10;16.63;;;7.10;99.90;;;7.87;100.00;-19994.69;5093353;28;20241;-58
2022/03/16 00:28:08;;;;;;;21.27;15.83;;;7.10;99.90;;;7.84;100.00;-19993.81;5093247;28;20226;-56
2022/03/16 00:30:37;;;;;;;22.33;16.93;;;7.00;99.90;;;7.81;100.00;-19992.63;5093934;28;20218;-58
2022/03/16 00:33:05;;;;;;;24.93;17.47;;;7.00;99.90;;;7.79;100.00;-19992.13;5093615;28;20215;-56
2022/03/16 00:35:33;;;;;;;24.83;17.23;;;7.00;99.90;;;7.82;100.00;-19993.13;5093464;28;20250;-56
2022/03/16 00:38:01;;;;;;;24.77;16.20;;;7.00;99.90;;;7.74;100.00;-19990.22;5093450;28;20234;-57
2022/03/16 00:40:32;;;;;;;21.90;16.23;;;6.90;99.90;;;7.85;100.00;-19994.00;5093016;28;20311;-57
2022/03/16 00:43:00;;;;;;;25.60;17.20;;;6.90;99.90;;;7.80;100.00;-19992.28;5092882;28;20233;-57
2022/03/16 00:45:28;;;;;;;23.73;16.83;;;6.90;99.90;;;7.63;100.00;-19986.66;5093563;28;20216;-53
2022/03/16 00:47:56;;;;;;;22.03;16.67;;;6.90;99.90;;;7.61;100.00;-19985.78;5092592;28;20250;-58
2022/03/16 00:50:24;;;;;;;24.00;16.23;;;6.90;99.90;;;7.79;100.00;-19992.13;5092964;28;20228;-55
2022/03/16 00:52:52;;;;;;;23.93;17.30;;;6.80;99.90;;;7.59;100.00;-19985.28;5092658;28;20706;-55
2022/03/16 00:55:21;;;;;;;21.57;15.93;;;6.80;99.90;;;7.51;100.00;-19982.53;5092752;28;20842;-56
2022/03/16 00:57:50;;;;;;;24.20;16.27;;;6.80;99.90;;;7.71;100.00;-19989.22;5092517;28;20412;-54
2022/03/16 01:00:18;;;;;;;21.37;15.77;;;6.80;99.90;;;7.56;100.00;-19984.09;5093105;28;20299;-58
2022/03/16 01:02:46;;;;;;;21.43;15.47;;;6.80;99.90;;;7.44;100.00;-19980.31;5092176;28;20322;-60
2022/03/16 01:05:14;;;;;;;22.13;14.97;;;6.70;99.90;;;7.52;100.00;-19982.72;5092145;28;20247;-57
2022/03/16 01:07:42;;;;;;;22.73;15.30;;;6.70;99.90;;;7.59;100.00;-19985.28;5092875;28;20249;-57
2022/03/16 01:10:10;;;;;;;22.77;16.50;;;6.70;99.90;;;7.56;100.00;-19984.09;5092447;28;20255;-56
2022/03/16 01:12:38;;;;;;;23.90;15.60;;;6.70;99.90;;;7.52;100.00;-19982.88;5092517;28;20617;-53
2022/03/16 01:15:08;;;;;;;21.70;16.03;;;6.80;99.90;;;7.52;100.00;-19982.72;5072047;28;20307;-57
2022/03/16 01:17:36;;;;;;;23.27;15.57;;;6.80;99.90;;;7.47;100.00;-19981.00;5072050;28;20223;-57
2022/03/16 01:20:07;;;;;;;24.37;16.47;;;6.70;99.90;;;7.42;100.00;-19979.63;5071951;28;20607;-56
2022/03/16 01:22:35;;;;;;;23.10;15.97;;;6.70;99.90;;;7.53;100.00;-19983.06;5072443;28;20268;-58
2022/03/16 01:25:03;;;;;;;22.60;15.57;;;6.70;99.90;;;7.54;100.00;-19983.56;5071978;28;20817;-56
2022/03/16 01:27:31;;;;;;;24.70;15.70;;;6.70;99.90;;;7.38;100.00;-19978.28;5072837;28;20306;-53
2022/03/16 01:29:59;;;;;;;24.10;15.13;;;6.60;99.90;;;7.30;100.00;-19975.53;5071527;28;20322;-57
2022/03/16 01:32:28;;;;;;;21.77;16.33;;;6.60;99.90;;;7.19;100.00;-19971.59;5071644;28;20227;-55
2022/03/16 01:34:56;;;;;;;24.20;16.37;;;6.60;99.90;;;7.17;100.00;-19970.94;5071523;28;20311;-55
2022/03/16 01:37:24;;;;;;;24.27;16.73;;;6.50;99.90;;;7.21;100.00;-19972.47;5071912;28;20220;-55
2022/03/16 01:39:52;;;;;;;23.83;16.77;;;6.50;99.90;;;7.17;100.00;-19971.09;5080202;28;20200;-57
2022/03/16 01:42:20;;;;;;;25.30;15.93;;;6.50;99.90;;;7.22;100.00;-19972.63;5092482;28;20553;-57
2022/03/16 01:44:51;;;;;;;21.50;16.67;;;6.40;99.90;;;7.29;100.00;-19975.19;5091320;28;20315;-60
2022/03/16 01:47:23;;;;;;;26.97;17.67;;;6.50;99.90;;;7.29;100.00;-19975.03;5087993;28;20318;-58
2022/03/16 01:49:55;;;;;;;25.53;16.43;;;6.50;99.90;;;7.33;100.00;-19976.56;5091851;28;20605;-56
2022/03/16 01:52:25;;;;;;;30.33;19.10;;;6.50;99.90;;;7.29;100.00;-19975.19;5091688;28;20219;-54
2022/03/16 01:54:54;;;;;;;25.27;17.50;;;6.50;99.90;;;7.28;100.00;-19974.84;5091774;28;20208;-57
2022/03/16 01:57:23;;;;;;;29.57;17.73;;;6.50;99.90;;;7.29;100.00;-19975.19;5092482;28;20209;-58
2022/03/16 01:59:51;;;;;;;28.30;17.20;;;6.50;99.90;;;7.39;100.00;-19978.44;5091151;28;20899;-58
2022/03/16 02:02:19;;;;;;;29.57;18.63;;;6.60;99.90;;;7.42;100.00;-19979.47;5091447;28;20235;-54
2022/03/16 02:04:48;;;;;;;25.63;17.83;;;6.60;99.90;;;7.41;100.00;-19979.13;5091453;28;20228;-56
2022/03/16 02:07:17;;;;;;;25.43;16.93;;;6.60;99.90;;;7.38;100.00;-19978.28;5091469;28;20318;-59
2022/03/16 02:09:45;;;;;;;29.37;18.20;;;6.60;99.90;;;7.43;100.00;-19979.81;5091218;28;20215;-57
2022/03/16 02:12:14;;;;;;;27.33;17.60;;;6.60;99.90;;;7.36;100.00;-19977.59;5091925;28;20298;-57
2022/03/16 02:14:42;;;;;;;26.47;17.90;;;6.60;99.90;;;7.37;100.00;-19977.94;5090764;28;20258;-53
2022/03/16 02:17:10;;;;;;;27.57;17.90;;;6.60;99.90;;;7.38;100.00;-19978.28;5091319;28;20230;-59
2022/03/16 02:19:38;;;;;;;25.97;17.00;;;6.60;99.90;;;7.42;100.00;-19979.63;5091260;28;20223;-60
2022/03/16 02:22:14;;;;;;;27.23;16.83;;;6.60;99.90;;;7.47;100.00;-19981.00;5091385;28;20223;-59
2022/03/16 02:24:43;;;;;;;23.20;16.47;;;6.60;99.90;;;7.35;100.00;-19977.06;5091640;28;20191;-58
2022/03/16 02:27:11;;;;;;;29.00;17.53;;;6.60;99.90;;;7.30;100.00;-19975.53;5091785;28;20218;-52
2022/03/16 02:29:39;;;;;;;26.73;16.67;;;6.50;99.90;;;7.29;100.00;-19975.19;5090716;28;20621;-56
2022/03/16 02:32:08;;;;;;;28.33;17.17;;;6.50;99.90;;;7.32;100.00;-19976.06;5091030;28;20235;-56
2022/03/16 02:34:36;;;;;;;26.63;16.87;;;6.50;99.90;;;7.45;100.00;-19980.50;5090972;28;20259;-56
2022/03/16 02:37:05;;;;;;;27.07;17.13;;;6.50;99.90;;;7.61;100.00;-19985.78;5090820;28;20590;-58
2022/03/16 02:39:34;;;;;;;25.93;16.80;;;6.50;99.90;;;7.55;100.00;-19983.75;5091553;28;20295;-54
2022/03/16 02:42:05;;;;;;;27.43;17.83;;;6.60;99.90;;;7.45;100.00;-19980.50;5090979;28;20280;-59
2022/03/16 02:44:33;;;;;;;24.73;15.90;;;6.60;99.90;;;7.45;100.00;-19980.50;5090585;28;20227;-58
2022/03/16 02:47:01;;;;;;;26.20;17.00;;;6.60;99.90;;;7.40;100.00;-19978.97;5091156;28;20234;-56
2022/03/16 02:49:31;;;;;;;25.37;16.10;;;6.60;99.90;;;7.24;100.00;-19973.50;5091055;28;20223;-56
2022/03/16 02:51:59;;;;;;;24.67;15.37;;;6.50;99.90;;;7.06;100.00;-19967.16;5091076;28;20235;-57
2022/03/16 02:54:27;;;;;;;24.23;15.23;;;6.40;99.90;;;6.88;100.00;-19961.19;5091431;28;20898;-56
2022/03/16 02:56:55;;;;;;;22.97;15.83;;;6.30;99.90;;;6.75;100.00;-19956.75;5090826;28;20280;-57
2022/03/16 02:59:24;;;;;;;21.97;15.20;;;6.20;99.90;;;6.56;100.00;-19950.09;5090415;28;20249;-58
2022/03/16 03:01:52;;;;;;;24.23;15.37;;;6.00;99.90;;;6.53;100.00;-19949.06;5090840;28;20223;-53
2022/03/16 03:04:21;;;;;;;28.80;16.83;;;5.90;99.90;;;6.43;100.00;-19945.81;5090840;28;20230;-57
2022/03/16 03:06:49;;;;;;;26.70;15.47;;;5.80;99.90;;;6.48;100.00;-19947.50;5090674;28;20309;-57
2022/03/16 03:09:17;;;;;;;28.60;16.60;;;5.80;99.90;;;6.49;100.00;-19947.84;5091477;28;20294;-61
2022/03/16 03:11:45;;;;;;;26.23;15.83;;;5.80;99.90;;;6.48;100.00;-19947.34;5090676;28;20230;-59
2022/03/16 03:14:13;;;;;;;23.27;15.53;;;5.80;99.90;;;6.65;100.00;-19953.31;5090213;28;20713;-56
2022/03/16 03:16:42;;;;;;;23.43;14.67;;;5.80;99.90;;;6.64;100.00;-19952.81;5090561;28;20317;-57
2022/03/16 03:19:10;;;;;;;24.47;16.20;;;5.80;99.90;;;6.51;100.00;-19948.38;5090701;28;20306;-58
2022/03/16 03:21:38;;;;;;;26.53;15.10;;;5.80;99.90;;;6.80;100.00;-19958.44;5091235;28;20288;-57
2022/03/16 03:24:07;;;;;;;24.00;14.40;;;5.90;99.90;;;6.81;100.00;-19958.63;5090299;28;20555;-57
2022/03/16 03:26:35;;;;;;;20.77;13.90;;;5.90;99.90;;;7.01;100.00;-19965.47;5090953;28;20228;-56
2022/03/16 03:29:03;;;;;;;23.03;14.57;;;6.00;99.90;;;7.13;100.00;-19969.72;5094475;28;20244;-56
2022/03/16 03:31:31;;;;;;;24.90;14.40;;;6.10;99.90;;;6.91;100.00;-19962.03;5094468;28;20234;-54
2022/03/16 03:34:01;;;;;;;21.27;14.40;;;6.10;99.90;;;7.00;100.00;-19965.13;5094167;28;20221;-57
2022/03/16 03:36:29;;;;;;;22.17;15.50;;;6.10;99.90;;;7.14;100.00;-19970.06;5094891;28;20309;-56
2022/03/16 03:38:58;;;;;;;26.93;15.03;;;6.20;99.90;;;7.04;100.00;-19966.47;5093992;28;20254;-55
2022/03/16 03:41:26;;;;;;;24.80;15.37;;;6.20;99.90;;;7.11;100.00;-19968.88;5094305;28;20259;-55
2022/03/16 03:43:54;;;;;;;21.20;14.53;;;6.20;99.90;;;6.94;100.00;-19963.25;5093858;28;20317;-55
2022/03/16 03:46:22;;;;;;;24.20;15.37;;;6.10;99.90;;;7.04;100.00;-19966.47;5093867;28;20233;-57
2022/03/16 03:48:50;;;;;;;25.73;15.07;;;6.10;99.90;;;6.95;100.00;-19963.56;5094253;28;20353;-56
2022/03/16 03:51:19;;;;;;;22.03;15.50;;;6.10;99.90;;;7.03;100.00;-19966.31;5094639;28;20628;-58
2022/03/16 03:53:47;;;;;;;23.57;15.47;;;6.10;99.90;;;7.00;100.00;-19965.28;5094038;28;20308;-55
2022/03/16 03:56:16;;;;;;;24.37;15.57;;;6.10;99.90;;;6.93;100.00;-19962.72;5093786;28;20311;-56
2022/03/16 03:58:45;;;;;;;25.50;15.93;;;6.10;99.90;;;6.75;100.00;-19956.75;5094002;28;20227;-58
2022/03/16 04:01:15;;;;;;;24.63;16.10;;;6.00;99.90;;;6.68;100.00;-19954.34;5093694;28;20304;-56
2022/03/16 04:03:44;;;;;;;25.33;15.50;;;5.90;99.90;;;6.69;100.00;-19954.69;5093716;28;20206;-59
2022/03/16 04:06:12;;;;;;;26.90;16.07;;;5.80;99.90;;;6.36;100.00;-19943.25;5094290;28;20242;-56
2022/03/16 04:08:42;;;;;;;25.63;17.33;;;5.70;99.90;;;6.34;100.00;-19942.72;5093631;28;20341;-59
2022/03/16 04:11:11;;;;;;;21.93;15.53;;;5.60;99.90;;;6.33;100.00;-19942.38;5093503;28;20308;-57
2022/03/16 04:13:39;;;;;;;32.83;17.73;;;5.60;99.90;;;6.31;100.00;-19941.69;5093474;28;20289;-54
2022/03/16 04:16:08;;;;;;;27.50;16.57;;;5.60;99.90;;;6.46;100.00;-19946.66;5093080;28;20264;-58
2022/03/16 04:18:36;;;;;;;27.77;16.50;;;5.50;99.90;;;6.29;100.00;-19940.84;5094216;28;20198;-57
2022/03/16 04:21:04;;;;;;;27.33;16.37;;;5.50;99.90;;;6.04;100.00;-19932.47;5093095;28;20592;-57
2022/03/16 04:23:32;;;;;;;28.00;16.33;;;5.40;99.90;;;6.15;100.00;-19936.41;5093313;28;20718;-54
2022/03/16 04:26:01;;;;;;;28.47;16.93;;;5.40;99.90;;;6.26;100.00;-19939.81;5093394;28;20232;-57
2022/03/16 04:28:29;;;;;;;30.90;17.70;;;5.40;99.90;;;6.04;100.00;-19932.47;5093600;28;20226;-57
2022/03/16 04:30:57;;;;;;;25.00;16.40;;;5.30;99.90;;;6.23;100.00;-19938.97;5093141;28;20563;-57
2022/03/16 04:33:25;;;;;;;29.50;17.33;;;5.30;99.90;;;6.14;100.00;-19936.06;5093982;28;20623;-57
2022/03/16 04:35:53;;;;;;;27.23;16.73;;;5.30;99.90;;;6.23;100.00;-19938.97;5093052;28;20252;-56
2022/03/16 04:38:22;;;;;;;27.53;17.37;;;5.30;99.90;;;6.22;100.00;-19938.78;5092078;28;20656;-56
2022/03/16 04:40:50;;;;;;;26.63;16.87;;;5.30;99.90;;;5.97;100.00;-19930.09;5092966;28;20259;-56
2022/03/16 04:43:19;;;;;;;26.40;17.07;;;5.20;99.90;;;5.88;100.00;-19927.00;5092936;28;20300;-57
2022/03/16 04:45:47;;;;;;;27.97;17.17;;;5.10;99.90;;;5.85;100.00;-19925.97;5092569;28;20546;-56
2022/03/16 04:48:20;;;;;;;26.27;16.97;;;5.10;99.90;;;5.94;100.00;-19929.22;5093655;28;20208;-57
2022/03/16 04:50:48;;;;;;;25.67;16.23;;;5.10;99.90;;;5.73;100.00;-19921.88;5092614;28;20251;-58
2022/03/16 04:53:16;;;;;;;28.23;16.97;;;5.00;99.90;;;5.76;100.00;-19922.91;5093093;28;20224;-56
2022/03/16 04:55:44;;;;;;;27.43;16.80;;;4.90;99.90;;;5.82;100.00;-19925.13;5093061;28;20307;-57
2022/03/16 04:58:13;;;;;;;28.20;17.53;;;4.90;99.90;;;5.68;100.00;-19920.34;5092591;28;20312;-61
2022/03/16 05:00:42;;;;;;;24.97;16.07;;;4.90;99.90;;;5.51;100.00;-19914.53;5092786;28;20323;-56
2022/03/16 05:03:14;;;;;;;26.90;16.67;;;4.80;99.90;;;5.12;100.00;-19901.03;5093303;28;20690;-58
2022/03/16 05:05:42;;;;;;;27.97;17.23;;;4.70;99.90;;;4.97;100.00;-19896.06;5092622;28;20233;-56
2022/03/16 05:08:10;;;;;;;27.57;17.37;;;4.50;99.90;;;5.04;100.00;-19898.28;5092732;28;20220;-57
2022/03/16 05:10:38;;;;;;;26.50;17.27;;;4.40;99.90;;;5.34;100.00;-19908.53;5092483;28;20594;-57
2022/03/16 05:13:06;;;;;;;28.17;16.77;;;4.50;99.90;;;5.49;100.00;-19913.84;5092368;28;20406;-58
2022/03/16 05:15:34;;;;;;;26.47;15.70;;;4.50;99.90;;;5.42;100.00;-19911.44;5092899;28;20296;-55
2022/03/16 05:18:04;;;;;;;27.97;16.83;;;4.60;99.90;;;5.02;100.00;-19897.78;5092114;28;20700;-56
2022/03/16 05:20:33;;;;;;;24.87;16.47;;;4.40;99.90;;;4.88;100.00;-19893.00;5092467;28;20306;-56
2022/03/16 05:23:01;;;;;;;26.23;16.70;;;4.30;99.90;;;4.84;100.00;-19891.63;5092258;28;20323;-57
2022/03/16 05:25:31;;;;;;;26.20;17.37;;;4.20;99.90;;;4.91;100.00;-19894.19;5091983;28;20305;-56
2022/03/16 05:27:59;;;;;;;27.23;16.97;;;4.20;99.90;;;4.86;100.00;-19892.31;5091703;28;20330;-56
2022/03/16 05:30:27;;;;;;;26.73;16.50;;;4.20;99.90;;;4.97;100.00;-19896.06;5092632;28;20210;-56
2022/03/16 05:33:00;;;;;;;25.97;16.17;;;4.10;99.90;;;5.27;100.00;-19906.16;5091716;28;20780;-58
2022/03/16 05:35:31;;;;;;;25.60;16.53;;;4.30;99.90;;;5.19;100.00;-19903.59;5091829;28;20227;-56
2022/03/16 05:38:00;;;;;;;27.67;15.93;;;4.30;99.90;;;5.37;100.00;-19909.75;5091592;28;20401;-56
2022/03/16 05:40:28;;;;;;;26.23;16.47;;;4.40;99.90;;;5.56;100.00;-19916.25;5091961;28;20461;-56
2022/03/16 05:42:56;;;;;;;26.90;16.23;;;4.50;99.90;;;5.49;100.00;-19913.66;5091675;28;20207;-56
2022/03/16 05:45:24;;;;;;;25.50;15.20;;;4.60;99.90;;;5.38;100.00;-19909.91;5091957;28;20210;-55
2022/03/16 05:47:52;;;;;;;23.90;16.07;;;4.50;99.90;;;5.23;100.00;-19904.78;5091346;28;20221;-57
2022/03/16 05:50:20;;;;;;;25.57;15.50;;;4.50;99.90;;;5.06;100.00;-19899.13;5091156;28;20232;-54
2022/03/16 05:52:49;;;;;;;27.30;15.90;;;4.50;99.90;;;5.33;100.00;-19908.19;5091247;28;20308;-56
2022/03/16 05:55:17;;;;;;;25.60;15.90;;;4.50;99.90;;;5.39;100.00;-19910.44;5091668;28;20304;-57
2022/03/16 05:57:45;;;;;;;26.90;16.07;;;4.50;99.90;;;5.39;100.00;-19910.25;5091502;28;20315;-57
2022/03/16 06:00:15;;;;;;;25.30;15.37;;;4.60;99.90;;;5.25;100.00;-19905.63;5092203;28;20202;-56
2022/03/16 06:02:44;;;;;;;28.07;15.70;;;4.50;99.90;;;5.30;100.00;-19907.19;5091327;28;20228;-58
2022/03/16 06:05:13;;;;;;;25.17;15.57;;;4.50;99.90;;;5.30;100.00;-19907.19;5091552;28;20767;-57
2022/03/16 06:07:41;;;;;;;26.50;16.37;;;4.50;99.90;;;5.36;100.00;-19909.22;5090928;28;20250;-54
2022/03/16 06:10:16;;;;;;;26.50;15.77;;;4.60;99.90;;;5.48;100.00;-19913.34;5091332;28;20220;-55
2022/03/16 06:12:56;;;;;;;24.53;15.00;;;4.60;99.90;;;5.38;100.00;-19909.91;5091179;28;20324;-54
2022/03/16 06:15:26;;;;;;;24.00;15.57;;;4.60;99.90;;;5.41;100.00;-19910.94;5091414;28;20191;-54
2022/03/16 06:17:57;;;;;;;25.67;16.80;;;4.60;99.90;;;5.43;100.00;-19911.78;5090567;28;20229;-56
2022/03/16 06:20:28;;;;;;;25.70;16.50;;;4.70;99.90;;;5.42;100.00;-19911.28;5091084;28;20716;-56
2022/03/16 06:22:56;;;;;;;25.43;15.70;;;4.70;99.90;;;5.49;100.00;-19913.84;5090906;28;20308;-59
2022/03/16 06:25:25;;;;;;;26.43;16.40;;;4.70;99.90;;;5.55;100.00;-19915.88;5091267;28;20234;-57
2022/03/16 06:27:53;;;;;;;26.40;16.80;;;4.80;99.90;;;5.61;100.00;-19917.94;5090743;28;20216;-58
2022/03/16 06:30:21;;;;;;;23.20;15.93;;;4.80;99.90;;;5.65;100.00;-19919.16;5091371;28;20208;-55
2022/03/16 06:32:49;;;;;;;22.63;15.73;;;4.90;99.90;;;5.76;100.00;-19922.91;5090616;28;20231;-57
2022/03/16 06:35:17;;;;;;;25.53;16.17;;;5.00;99.90;;;5.78;100.00;-19923.75;5090963;28;20234;-56
2022/03/16 06:37:46;;;;;;;24.90;15.20;;;5.00;99.90;;;5.85;100.00;-19926.16;5090634;28;20226;-57
2022/03/16 06:40:15;;;;;;;20.53;15.00;;;5.10;99.90;;;5.85;100.00;-19925.97;5090758;28;20702;-55
2022/03/16 06:42:50;;;;;;;24.30;14.87;;;5.10;99.90;;;6.29;100.00;-19940.84;5090241;28;20644;-55
2022/03/16 06:45:20;;;;;;;22.53;15.23;;;5.30;99.90;;;6.53;100.00;-19949.06;5091217;28;20224;-57
2022/03/16 06:47:49;;;;;;;22.13;15.40;;;5.40;99.90;;;6.36;100.00;-19943.25;5090740;28;20253;-57
2022/03/16 06:50:18;;;;;;;27.13;17.70;;;5.50;99.90;;;6.30;100.00;-19941.38;5089171;28;20300;-61
2022/03/16 06:52:47;;;;;;;23.63;15.00;;;5.50;99.90;;;6.48;100.00;-19947.50;5090283;28;20289;-61
2022/03/16 06:55:15;;;;;;;25.00;15.53;;;5.60;99.90;;;6.57;100.00;-19950.59;5090499;28;20308;-58
2022/03/16 06:57:43;;;;;;;22.80;15.47;;;5.70;99.90;;;6.93;100.00;-19962.72;5089673;28;20223;-58
2022/03/16 07:00:14;;;;;;;24.00;14.67;;;5.80;99.90;;;7.01;100.00;-19965.47;5090164;28;20719;-56
2022/03/16 07:02:58;;;;;;;21.37;14.50;;;6.00;99.90;;;7.00;100.00;-19965.28;5092502;28;20230;-57
2022/03/16 07:05:29;;;;;;;20.80;15.33;;;6.10;99.90;;;6.98;100.00;-19964.59;5094446;28;20231;-59
2022/03/16 07:07:58;;;;;;;22.43;14.17;;;6.20;99.90;;;7.07;100.00;-19967.50;5093840;28;20276;-60
2022/03/16 07:10:27;;;;;;;21.63;14.10;;;6.20;99.90;;;7.15;100.00;-19970.25;5094737;28;20310;-60
2022/03/16 07:12:55;;;;;;;22.47;14.03;;;6.30;99.90;;;7.29;100.00;-19975.19;5093883;28;20386;-61
2022/03/16 07:15:25;;;;;;;21.97;14.07;;;6.40;99.90;;;7.43;100.00;-19979.81;5094472;28;20214;-61
2022/03/16 07:17:54;;;;;;;19.63;14.33;;;6.50;99.90;;;7.52;100.00;-19982.72;5077827;28;20234;-61
2022/03/16 07:20:22;;;;;;;21.17;13.77;;;6.60;99.90;;;7.81;100.00;-19992.81;5081616;28;20227;-61
2022/03/16 07:23:03;;;;;;;21.33;14.17;;;6.70;99.90;;;8.03;100.00;-20000.16;5088044;28;20800;-60
2022/03/16 07:25:36;;;;;;;18.37;13.70;;;6.90;99.90;;;8.21;100.00;-20006.47;5092055;28;20635;-59
2022/03/16 07:28:05;;;;;;;24.07;14.07;;;7.00;99.90;;;8.24;100.00;-20007.31;5073653;28;20223;-60
2022/03/16 07:30:35;;;;;;;23.40;13.93;;;7.20;99.90;;;8.32;100.00;-20010.22;5073592;28;20706;-60
2022/03/16 07:33:04;;;;;;;19.90;14.07;;;7.30;99.90;;;8.44;100.00;-20014.34;5073623;28;20241;-59
2022/03/16 07:35:34;;;;;;;20.60;13.53;;;7.40;99.90;;;8.47;100.00;-20015.19;5087313;28;20315;-57
2022/03/16 07:38:03;;;;;;;20.60;13.30;;;7.50;99.90;;;8.62;100.00;-20020.47;5094116;28;20239;-58
2022/03/16 07:40:35;;;;;;;21.57;14.07;;;7.60;99.90;;;8.49;100.00;-20015.88;5094525;28;20668;-56
2022/03/16 07:43:05;;;;;;;19.57;13.80;;;7.50;99.90;;;8.75;100.00;-20024.59;5093499;28;20227;-58
2022/03/16 07:45:36;;;;;;;18.20;12.93;;;7.70;99.90;;;8.80;100.00;-20026.28;5093493;28;20228;-57
2022/03/16 07:48:05;;;;;;;19.30;13.67;;;7.60;99.90;;;8.96;100.00;-20031.94;5093444;28;20226;-57
2022/03/16 07:50:34;;;;;;;19.90;14.00;;;7.80;99.90;;;9.05;100.00;-20034.84;5093230;28;20778;-57
2022/03/16 07:53:02;;;;;;;17.67;13.17;;;7.90;99.90;;;9.23;100.00;-20041.16;5075904;28;20204;-53
2022/03/16 07:55:31;;;;;;;21.90;13.53;;;8.10;99.90;;;9.46;100.00;-20048.84;5073622;28;20629;-55
2022/03/16 07:57:59;;;;;;;17.47;13.10;;;8.20;99.90;;;9.56;100.00;-20052.44;5072827;28;20737;-55
2022/03/16 08:00:27;;;;;;;18.23;12.97;;;8.40;99.90;;;9.67;100.00;-20056.00;5073070;28;20604;-57
2022/03/16 08:03:02;;;;;;;19.70;13.07;;;8.50;99.90;;;9.73;100.00;-20058.06;5073055;28;20237;-56
2022/03/16 08:05:31;;;;;;;17.00;12.37;;;8.60;99.90;;;9.80;100.00;-20060.63;5073399;28;20267;-55
2022/03/16 08:07:59;;;;;;;15.13;11.63;;;8.70;99.90;;;9.93;100.00;-20064.91;5073338;28;20201;-58
2022/03/16 08:10:27;;;;;;;15.77;12.50;;;8.70;99.90;;;10.04;100.00;-20068.47;5073569;28;20283;-58
2022/03/16 08:12:55;;;;;;;17.90;12.13;;;8.90;99.90;;;10.29;100.00;-20077.03;5072501;28;20229;-58
2022/03/16 08:15:24;;;;;;;19.43;13.27;;;9.00;99.90;;;10.34;100.00;-20078.75;5072748;28;20271;-58
2022/03/16 08:17:52;;;;;;;16.90;12.80;;;9.10;99.90;;;10.44;100.00;-20082.16;5072959;28;20291;-59
2022/03/16 08:20:21;;;;;;;17.63;13.10;;;9.20;99.90;;;10.38;100.00;-20080.28;5072925;28;20311;-60
2022/03/16 08:22:51;;;;;;;15.50;12.57;;;9.20;99.90;;;10.39;100.00;-20080.63;5073167;28;20291;-58
2022/03/16 08:25:21;;;;;;;17.97;12.40;;;9.30;99.90;;;10.50;100.00;-20084.38;5075338;28;20193;-57
2022/03/16 08:27:49;;;;;;;18.03;12.93;;;9.40;99.90;;;10.77;100.00;-20093.44;5092969;28;20306;-58
2022/03/16 08:30:17;;;;;;;19.43;12.33;;;9.40;99.90;;;10.70;100.00;-20091.22;5092597;28;20236;-57
2022/03/16 08:32:45;;;;;;;17.97;11.60;;;9.50;99.90;;;10.81;100.00;-20094.78;5092496;28;20220;-58
2022/03/16 08:35:14;;;;;;;15.73;11.53;;;9.60;99.90;;;10.95;100.00;-20099.56;5092579;28;20224;-57
2022/03/16 08:37:43;;;;;;;18.83;13.17;;;9.70;99.90;;;10.89;100.00;-20097.53;5093073;28;20227;-55
2022/03/16 08:40:15;;;;;;;15.27;11.37;;;9.70;99.90;;;10.89;100.00;-20097.69;5092626;28;20234;-54
2022/03/16 08:42:43;;;;;;;19.10;11.97;;;9.70;99.90;;;10.95;100.00;-20099.56;5092493;28;20315;-59
2022/03/16 08:45:11;;;;;;;16.83;10.97;;;9.80;99.90;;;11.13;100.00;-20105.56;5092262;28;20231;-55
2022/03/16 08:47:39;;;;;;;14.10;10.67;;;9.90;99.90;;;11.21;100.00;-20108.47;5092408;28;20224;-57
2022/03/16 08:50:09;;;;;;;13.67;10.47;;;10.00;99.90;;;11.35;100.00;-20113.06;5092837;28;20206;-54
2022/03/16 08:52:37;;;;;;;16.30;11.20;;;10.10;99.90;;;11.39;100.00;-20114.59;5092966;28;20297;-59
2022/03/16 08:55:08;;;;;;;14.73;11.83;;;10.20;99.90;;;11.53;100.00;-20119.38;5092066;28;20668;-58
2022/03/16 08:57:38;;;;;;;12.20;10.50;;;10.30;99.90;;;11.57;100.00;-20120.59;5092316;28;20228;-59
2022/03/16 09:00:08;;;;;;;13.97;10.40;;;10.40;99.90;;;11.74;100.00;-20126.56;5092225;28;20235;-56
2022/03/16 09:02:36;;;;;;;14.23;10.70;;;10.50;99.90;;;11.77;100.00;-20127.59;5092042;28;20315;-61
2022/03/16 09:05:06;;;;;;;14.13;11.07;;;10.50;99.90;;;11.93;100.00;-20133.06;5092303;28;20200;-58
2022/03/16 09:07:34;;;;;;;13.90;11.03;;;10.60;99.90;;;11.70;100.00;-20125.19;5092369;28;20893;-55
2022/03/16 09:10:03;;;;;;;13.47;9.93;;;10.60;99.90;;;11.48;100.00;-20117.69;5092254;28;20730;-57
2022/03/16 09:12:32;;;;;;;14.00;10.40;;;10.50;99.90;;;11.66;100.00;-20123.66;5091585;28;20787;-54
2022/03/16 09:15:00;;;;;;;20.03;10.30;;;10.40;99.90;;;11.74;100.00;-20126.38;5091876;28;20226;-57
2022/03/16 09:17:30;;;;;;;14.93;11.03;;;10.60;99.90;;;11.75;100.00;-20126.72;5092198;28;20228;-55
2022/03/16 09:19:59;;;;;;;14.80;10.70;;;10.60;99.90;;;11.78;100.00;-20127.75;5092080;28;20215;-55
2022/03/16 09:22:27;;;;;;;13.97;10.40;;;10.60;99.90;;;11.93;100.00;-20132.88;5092288;28;20562;-57
2022/03/16 09:24:56;;;;;;;13.80;10.30;;;10.80;99.90;;;12.11;100.00;-20139.19;5090978;28;20224;-59
2022/03/16 09:27:24;;;;;;;15.07;10.50;;;10.90;99.90;;;12.16;100.00;-20140.72;5091571;28;20227;-57
2022/03/16 09:29:55;;;;;;;17.23;10.07;;;11.00;99.90;;;12.33;100.00;-20146.38;5091414;28;20227;-56
2022/03/16 09:32:23;;;;;;;12.33;9.53;;;11.00;99.90;;;12.44;100.00;-20150.28;5091515;28;20629;-56
2022/03/16 09:34:52;;;;;;;12.40;9.33;;;11.10;99.90;;;12.63;100.00;-20156.63;5091366;28;20587;-54
2022/03/16 09:37:20;;;;;;;12.93;9.50;;;11.20;99.90;;;12.88;100.00;-20165.31;5092250;28;20199;-56
2022/03/16 09:39:48;;;;;;;14.33;10.10;;;11.40;99.90;;;13.00;100.00;-20169.41;5091391;28;20232;-58
2022/03/16 09:42:19;;;;;;;13.70;9.60;;;11.50;99.90;;;13.14;99.64;-20174.19;5091628;28;20223;-55
2022/03/16 09:44:50;;;;;;;13.17;9.57;;;11.70;99.90;;;13.21;98.40;-20176.41;5090997;28;20227;-56
2022/03/16 09:47:22;;;;;;;12.87;9.27;;;11.80;99.90;;;13.37;94.59;-20182.06;5091816;28;20220;-56
2022/03/16 09:49:53;;;;;;;11.83;8.80;;;11.90;99.90;;;13.26;95.63;-20178.31;5091427;28;20635;-58
2022/03/16 09:52:26;;;;;;;10.83;8.97;;;11.90;99.90;;;13.17;95.51;-20175.06;5092032;28;20624;-56
2022/03/16 09:54:54;;;;;;;11.53;8.23;;;11.90;99.90;;;13.01;95.71;-20169.59;5091536;28;20302;-57
2022/03/16 09:57:22;;;;;;;11.77;10.20;;;11.80;99.90;;;12.87;95.95;-20164.81;5091808;28;20220;-59
2022/03/16 09:59:51;;;;;;;12.47;8.63;;;11.80;99.90;;;12.73;97.15;-20160.03;5090871;28;20228;-60
2022/03/16 10:02:21;;;;;;;11.43;8.43;;;11.70;99.90;;;12.68;98.02;-20158.50;5091411;28;20778;-60
2022/03/16 10:04:50;;;;;;;13.53;9.33;;;11.60;99.90;;;12.77;97.29;-20161.41;5091307;28;20208;-59
2022/03/16 10:07:18;;;;;;;16.63;8.87;;;11.60;99.90;;;12.81;97.23;-20162.94;5091579;28;20233;-59
2022/03/16 10:15:20;;;;;;;13.50;9.30;;;11.90;99.90;;;13.24;93.50;-20177.44;5111045;28;20397;-60
2022/03/16 10:17:59;;;;;;;11.63;8.60;;;11.90;99.90;;;13.10;95.13;-20172.66;5108768;28;20710;-59